CheckWX is a tool to help pilots better visualize weather data.  It is not intended as a substitute for an official pre-flight weather briefing.

21:54:56 UTC

KRDD TAF
Redding Municipal Airport
Redding, California, USA
KRDD 201733Z 2018/2118 16009KT P6SM SHRA BKN025 TEMPO 2018/2021 4SM -RA SCT015 FM210500 17005KT P6SM OVC050

Mar-20@
18:00 UTC

Mar-20 @ 18:00 UTC

Mar-21@
05:00 UTC

Mar-21 @ 05:00 UTC

KRDD 201733Z 2018/2118 16009KT P6SM SHRA BKN025
Wind
  • 160° at 9 KTS
Conditions
Rain
Cloud Levels
  • Broken at 2,500' AGL

Mar-20@
18:00 UTC

Mar-20 @ 18:00 UTC

Mar-20@
21:00 UTC

Mar-20 @ 21:00 UTC

TEMPO 2018/2021 4SM -RA SCT015

Expired

Conditions
Light Rain
Cloud Levels
  • Scattered at 1,500' AGL

Mar-21@
05:00 UTC

Mar-21 @ 05:00 UTC

Mar-21@
18:00 UTC

Mar-21 @ 18:00 UTC

FM210500 17005KT P6SM OVC050

From

From Standard forecast or significant change

Wind
  • 170° at 5 KTS
Cloud Levels
  • Overcast at 5,000' AGL